createdAt,value
2022-12-31T00:01:11.112Z,70.55
2022-12-31T00:03:40.295Z,70.40
2022-12-31T00:06:49.594Z,70.46
2022-12-31T00:09:17.769Z,70.38
2022-12-31T00:11:44.918Z,70.46
2022-12-31T00:14:13.284Z,70.41
2022-12-31T00:16:42.067Z,70.26
2022-12-31T00:19:11.193Z,70.27
2022-12-31T00:21:39.554Z,70.33
2022-12-31T00:24:07.922Z,70.22
2022-12-31T00:26:35.671Z,70.08
2022-12-31T00:29:04.199Z,70.03
2022-12-31T00:31:34.145Z,70.01
2022-12-31T00:34:01.927Z,69.85
2022-12-31T00:36:37.966Z,69.86
2022-12-31T00:39:07.784Z,69.89
2022-12-31T00:41:34.625Z,69.92
2022-12-31T00:44:02.646Z,70.09
2022-12-31T00:46:31.330Z,70.17
2022-12-31T00:48:58.734Z,70.15
2022-12-31T00:51:26.925Z,70.36
2022-12-31T00:53:55.819Z,70.23
2022-12-31T00:56:26.380Z,70.29
2022-12-31T00:58:54.214Z,70.47
2022-12-31T01:01:24.392Z,70.42
2022-12-31T01:03:56.353Z,70.45
2022-12-31T01:06:24.685Z,70.44
2022-12-31T01:08:53.215Z,70.53
2022-12-31T01:11:28.614Z,70.57
2022-12-31T01:14:16.474Z,70.70
2022-12-31T01:16:49.327Z,70.65
2022-12-31T01:19:22.731Z,70.55
2022-12-31T01:21:52.029Z,70.44
2022-12-31T01:24:20.317Z,70.42
2022-12-31T01:26:50.840Z,70.35
2022-12-31T01:29:18.625Z,70.26
2022-12-31T01:31:45.852Z,70.20
2022-12-31T01:34:13.203Z,70.04
2022-12-31T01:36:40.666Z,69.99
2022-12-31T01:39:08.960Z,70.03
2022-12-31T01:41:44.902Z,70.13
2022-12-31T01:44:11.977Z,70.11
2022-12-31T01:46:52.895Z,70.00
2022-12-31T01:49:37.373Z,70.02
2022-12-31T01:52:10.781Z,70.02
2022-12-31T01:54:44.126Z,70.05
2022-12-31T01:57:12.038Z,70.01
2022-12-31T01:59:40.507Z,70.15
2022-12-31T02:02:07.526Z,70.13
2022-12-31T02:04:34.618Z,70.14
2022-12-31T02:07:07.611Z,70.20
2022-12-31T02:09:38.700Z,70.29
2022-12-31T02:12:08.077Z,70.43
2022-12-31T02:14:42.249Z,70.48
2022-12-31T02:17:17.884Z,70.38
2022-12-31T02:20:01.004Z,70.47
2022-12-31T02:22:43.118Z,70.50
2022-12-31T02:25:52.696Z,70.32
2022-12-31T02:29:05.892Z,70.21
2022-12-31T02:31:35.355Z,70.21
2022-12-31T02:34:21.222Z,70.25
2022-12-31T02:36:53.223Z,70.11
2022-12-31T02:39:21.152Z,70.18
2022-12-31T02:41:50.224Z,70.07
2022-12-31T02:44:32.124Z,70.01
2022-12-31T02:47:08.983Z,70.01
2022-12-31T02:49:54.371Z,70.00
2022-12-31T02:52:59.405Z,69.90
2022-12-31T02:55:26.526Z,69.90
2022-12-31T02:58:22.505Z,69.78
2022-12-31T03:01:13.457Z,69.72
2022-12-31T03:03:40.996Z,69.78
2022-12-31T03:06:09.033Z,69.85
2022-12-31T03:08:55.864Z,69.87
2022-12-31T03:11:41.312Z,69.74
2022-12-31T03:14:08.467Z,69.63
2022-12-31T03:16:35.536Z,69.62
2022-12-31T03:19:23.025Z,69.59
2022-12-31T03:22:09.059Z,69.65
2022-12-31T03:24:54.308Z,69.49
2022-12-31T03:27:21.242Z,69.44
2022-12-31T03:29:48.083Z,69.44
2022-12-31T03:32:15.141Z,69.38
2022-12-31T03:34:41.910Z,69.44
2022-12-31T03:37:08.800Z,69.46
2022-12-31T03:39:35.658Z,69.45
2022-12-31T03:42:03.427Z,69.45
2022-12-31T03:44:30.333Z,69.54
2022-12-31T03:46:57.119Z,69.57
2022-12-31T03:49:25.587Z,69.60
2022-12-31T03:51:52.871Z,69.65
2022-12-31T03:54:20.126Z,69.65
2022-12-31T03:56:49.441Z,69.86
2022-12-31T03:59:16.636Z,69.92
2022-12-31T04:01:43.765Z,69.96
2022-12-31T04:04:10.829Z,70.04
2022-12-31T04:06:37.989Z,70.07
2022-12-31T04:09:04.746Z,70.14
2022-12-31T04:11:31.679Z,70.25
2022-12-31T04:13:58.822Z,70.26
2022-12-31T04:16:26.176Z,70.26
2022-12-31T04:18:53.112Z,70.23
2022-12-31T04:21:20.070Z,70.26
2022-12-31T04:23:47.029Z,70.26
2022-12-31T04:26:14.045Z,70.34
2022-12-31T04:28:40.754Z,70.47
2022-12-31T04:31:07.739Z,70.54
2022-12-31T04:33:34.552Z,70.71
2022-12-31T04:36:02.454Z,70.75
2022-12-31T04:38:29.256Z,70.69
2022-12-31T04:41:14.578Z,70.67
2022-12-31T04:43:42.024Z,70.70
2022-12-31T04:46:08.975Z,70.74
2022-12-31T04:48:35.947Z,70.84
2022-12-31T04:51:03.543Z,70.91
2022-12-31T04:53:31.127Z,71.15
2022-12-31T04:55:57.993Z,71.26
2022-12-31T04:58:25.327Z,71.41
2022-12-31T05:00:54.077Z,71.48
2022-12-31T05:03:23.319Z,71.71
2022-12-31T05:05:50.568Z,71.85
2022-12-31T05:08:17.829Z,71.92
2022-12-31T05:10:47.848Z,72.00
2022-12-31T05:13:15.825Z,72.01
2022-12-31T05:15:42.962Z,71.99
2022-12-31T05:18:10.012Z,71.96
2022-12-31T05:20:37.060Z,71.86
2022-12-31T05:23:04.006Z,71.73
2022-12-31T05:25:31.574Z,71.71
2022-12-31T05:27:58.610Z,71.78
2022-12-31T05:30:25.668Z,71.87
2022-12-31T05:32:53.527Z,72.04
2022-12-31T05:35:20.579Z,72.11
2022-12-31T05:37:47.521Z,72.23
2022-12-31T05:40:14.601Z,72.32
2022-12-31T05:42:41.418Z,72.33
2022-12-31T05:45:08.963Z,72.47
2022-12-31T05:47:35.795Z,72.70
2022-12-31T05:50:02.866Z,73.05
2022-12-31T05:52:29.804Z,73.23
2022-12-31T05:54:56.655Z,73.34
2022-12-31T05:57:23.789Z,73.35
2022-12-31T05:59:53.202Z,73.30
2022-12-31T06:02:21.212Z,73.55
2022-12-31T06:04:48.453Z,73.73
2022-12-31T06:07:15.269Z,73.96
2022-12-31T06:09:41.995Z,74.14
2022-12-31T06:12:09.251Z,74.29
2022-12-31T06:14:39.577Z,74.43
2022-12-31T06:17:09.703Z,74.45
2022-12-31T06:19:36.651Z,74.68
2022-12-31T06:22:03.601Z,74.73
2022-12-31T06:24:30.536Z,74.56
2022-12-31T06:26:57.602Z,74.58
2022-12-31T06:29:25.546Z,74.50
2022-12-31T06:31:52.403Z,74.50
2022-12-31T06:34:19.332Z,74.60
2022-12-31T06:36:46.200Z,74.64
2022-12-31T06:39:13.033Z,74.69
2022-12-31T06:41:41.090Z,74.65
2022-12-31T06:44:08.152Z,74.52
2022-12-31T06:46:35.031Z,74.56
2022-12-31T06:49:01.840Z,74.47
2022-12-31T06:51:28.563Z,74.49
2022-12-31T06:53:55.403Z,74.58
2022-12-31T06:56:33.062Z,74.91
2022-12-31T06:59:02.280Z,75.06
2022-12-31T07:01:47.996Z,75.55
2022-12-31T07:04:23.865Z,75.54
2022-12-31T07:07:16.500Z,75.41
2022-12-31T07:10:11.524Z,75.38
2022-12-31T07:12:57.083Z,75.21
2022-12-31T07:15:57.461Z,75.36
2022-12-31T07:18:50.265Z,75.43
2022-12-31T07:21:23.675Z,75.35
2022-12-31T07:23:51.125Z,75.36
2022-12-31T07:26:55.954Z,75.53
2022-12-31T07:29:38.686Z,75.49
2022-12-31T07:32:30.630Z,75.44
2022-12-31T07:35:16.400Z,75.43
2022-12-31T07:37:46.114Z,75.37
2022-12-31T07:40:50.923Z,75.29
2022-12-31T07:43:30.197Z,75.22
2022-12-31T07:46:25.655Z,75.12
2022-12-31T07:48:53.360Z,75.09
2022-12-31T07:51:20.894Z,75.08
2022-12-31T07:53:47.972Z,74.96
2022-12-31T07:56:15.089Z,75.03
2022-12-31T07:58:50.533Z,75.08
2022-12-31T08:01:30.192Z,74.99
2022-12-31T08:04:07.476Z,74.91
2022-12-31T08:07:29.716Z,74.81
2022-12-31T08:10:03.411Z,74.77
2022-12-31T08:12:33.954Z,74.40
2022-12-31T08:15:01.706Z,74.10
2022-12-31T08:17:28.895Z,74.07
2022-12-31T08:19:56.225Z,73.88
2022-12-31T08:22:55.496Z,73.77
2022-12-31T08:25:26.530Z,73.74
2022-12-31T08:28:00.647Z,73.73
2022-12-31T08:30:36.524Z,73.74
2022-12-31T08:33:09.196Z,73.74
2022-12-31T08:35:54.892Z,73.70
2022-12-31T08:38:36.857Z,73.72
2022-12-31T08:41:23.609Z,73.39
2022-12-31T08:44:28.843Z,73.31
2022-12-31T08:47:02.065Z,73.03
2022-12-31T08:49:32.215Z,72.73
2022-12-31T08:52:00.808Z,72.55
2022-12-31T08:54:32.183Z,72.07
2022-12-31T08:57:35.580Z,71.95
2022-12-31T09:00:09.722Z,71.66
2022-12-31T09:02:51.407Z,71.25
2022-12-31T09:05:25.197Z,71.07
2022-12-31T09:08:30.038Z,70.82
2022-12-31T09:11:16.391Z,70.53
2022-12-31T09:13:58.008Z,70.32
2022-12-31T09:16:24.869Z,70.06
2022-12-31T09:18:51.697Z,69.88
2022-12-31T09:21:19.272Z,69.89
2022-12-31T09:23:46.535Z,69.80
2022-12-31T09:26:39.598Z,69.53
2022-12-31T09:29:28.242Z,69.56
2022-12-31T09:32:04.529Z,69.38
2022-12-31T09:35:06.981Z,69.22
2022-12-31T09:37:54.393Z,69.10
2022-12-31T09:40:45.717Z,69.22
2022-12-31T09:43:31.397Z,69.29
2022-12-31T09:46:17.133Z,69.36
2022-12-31T09:48:58.156Z,69.09
2022-12-31T09:51:30.240Z,69.25
2022-12-31T09:54:12.432Z,69.01
2022-12-31T09:56:45.010Z,68.92
2022-12-31T09:59:38.579Z,68.89
2022-12-31T10:02:28.332Z,68.79
2022-12-31T10:05:19.412Z,68.65
2022-12-31T10:07:55.547Z,68.57
2022-12-31T10:10:30.391Z,68.45
2022-12-31T10:13:09.017Z,68.54
2022-12-31T10:15:39.017Z,68.45
2022-12-31T10:18:28.837Z,68.33
2022-12-31T10:21:33.126Z,68.13
2022-12-31T10:24:35.576Z,67.81
2022-12-31T10:27:30.075Z,67.73
2022-12-31T10:29:57.075Z,67.35
2022-12-31T10:32:39.338Z,67.27
2022-12-31T10:35:28.402Z,66.95
2022-12-31T10:38:20.442Z,66.78
2022-12-31T10:41:25.173Z,66.48
2022-12-31T10:44:25.351Z,66.32
2022-12-31T10:47:29.208Z,66.21
2022-12-31T10:50:30.033Z,66.29
2022-12-31T10:53:16.445Z,66.04
2022-12-31T10:55:46.256Z,66.04
2022-12-31T10:58:34.701Z,66.12
2022-12-31T11:01:13.137Z,65.86
2022-12-31T11:04:20.925Z,66.09
2022-12-31T11:07:15.455Z,65.83
2022-12-31T11:09:57.522Z,66.07
2022-12-31T11:12:55.900Z,65.92
2022-12-31T11:15:35.160Z,65.88
2022-12-31T11:18:19.903Z,65.79
2022-12-31T11:21:07.132Z,65.80
2022-12-31T11:23:52.799Z,65.75
2022-12-31T11:26:40.021Z,65.51
2022-12-31T11:29:31.980Z,65.44
2022-12-31T11:32:02.056Z,65.31
2022-12-31T11:34:38.651Z,65.32
2022-12-31T11:37:47.886Z,65.43
2022-12-31T11:40:27.418Z,65.08
2022-12-31T11:43:00.415Z,64.79
2022-12-31T11:46:19.643Z,64.86
2022-12-31T11:49:31.781Z,64.63
2022-12-31T11:52:17.097Z,64.27
2022-12-31T11:55:23.209Z,64.26
2022-12-31T11:57:51.949Z,64.14
2022-12-31T12:00:27.592Z,64.11
2022-12-31T12:03:03.013Z,63.75
2022-12-31T12:05:32.825Z,63.79
2022-12-31T12:08:01.401Z,63.82
2022-12-31T12:10:37.172Z,63.69
2022-12-31T12:13:15.257Z,63.64
2022-12-31T12:15:49.627Z,63.62
2022-12-31T12:18:28.597Z,63.60
2022-12-31T12:21:25.501Z,63.40
2022-12-31T12:24:19.332Z,63.38
2022-12-31T12:26:47.100Z,63.54
2022-12-31T12:29:21.408Z,63.44
2022-12-31T12:32:19.804Z,63.40
2022-12-31T12:34:49.968Z,63.25
2022-12-31T12:37:24.974Z,63.43
2022-12-31T12:40:18.743Z,63.35
2022-12-31T12:42:49.210Z,63.27
2022-12-31T12:45:20.767Z,63.17
2022-12-31T12:47:55.245Z,63.09
2022-12-31T12:50:26.576Z,63.01
2022-12-31T12:53:16.176Z,63.03
2022-12-31T12:56:20.296Z,63.09
2022-12-31T12:59:06.572Z,63.27
2022-12-31T13:02:03.810Z,63.29
2022-12-31T13:04:55.302Z,63.38
2022-12-31T13:07:23.641Z,63.61
2022-12-31T13:10:19.381Z,63.72
2022-12-31T13:16:00.504Z,63.71
2022-12-31T13:19:02.424Z,63.83
2022-12-31T13:21:35.606Z,64.22
2022-12-31T13:24:40.036Z,64.22
2022-12-31T13:27:17.773Z,64.25
2022-12-31T13:29:47.816Z,64.41
2022-12-31T13:32:23.588Z,64.54
2022-12-31T13:34:57.603Z,64.46
2022-12-31T13:37:31.125Z,64.43
2022-12-31T13:40:07.753Z,64.63
2022-12-31T13:42:42.048Z,64.80
2022-12-31T13:45:20.477Z,64.63
2022-12-31T13:47:59.612Z,64.66
2022-12-31T13:50:37.532Z,64.67
2022-12-31T13:53:20.051Z,64.72
2022-12-31T13:55:56.879Z,64.86
2022-12-31T13:58:44.511Z,64.89
2022-12-31T14:01:23.577Z,65.07
2022-12-31T14:03:56.637Z,65.03
2022-12-31T14:06:50.011Z,64.94
2022-12-31T14:09:27.703Z,65.17
2022-12-31T14:12:13.177Z,65.31
2022-12-31T14:14:54.590Z,65.39
2022-12-31T14:17:58.287Z,65.53
2022-12-31T14:20:49.600Z,65.47
2022-12-31T14:23:38.988Z,65.59
2022-12-31T14:26:16.805Z,65.79
2022-12-31T14:29:04.152Z,65.78
2022-12-31T14:31:49.400Z,66.02
2022-12-31T14:35:11.192Z,66.07
2022-12-31T14:38:23.104Z,65.84
2022-12-31T14:41:12.085Z,66.20
2022-12-31T14:44:20.469Z,66.23
2022-12-31T14:47:07.125Z,66.16
2022-12-31T14:49:52.893Z,66.20
2022-12-31T14:52:22.792Z,66.50
2022-12-31T14:55:08.672Z,66.45
2022-12-31T14:58:09.560Z,66.55
2022-12-31T15:00:30.003Z,66.53
2022-12-31T15:03:03.244Z,66.46
2022-12-31T15:05:36.358Z,66.53
2022-12-31T15:08:09.471Z,66.55
2022-12-31T15:11:03.898Z,66.41
2022-12-31T15:13:45.350Z,66.36
2022-12-31T15:16:12.892Z,66.23
2022-12-31T15:19:12.543Z,66.31
2022-12-31T15:22:02.310Z,66.13
2022-12-31T15:24:30.468Z,66.11
2022-12-31T15:27:01.160Z,65.86
2022-12-31T15:29:43.059Z,65.92
2022-12-31T15:32:19.801Z,65.91
2022-12-31T15:34:46.820Z,65.84
2022-12-31T15:37:36.318Z,65.99
2022-12-31T15:40:19.320Z,66.02
2022-12-31T15:42:52.315Z,65.90
2022-12-31T15:45:27.083Z,66.11
2022-12-31T15:48:00.031Z,66.11
2022-12-31T15:50:29.549Z,66.04
2022-12-31T15:52:59.866Z,66.24
2022-12-31T15:55:33.556Z,66.11
2022-12-31T15:58:10.754Z,66.26
2022-12-31T16:01:00.395Z,66.04
2022-12-31T16:03:31.368Z,66.21
2022-12-31T16:06:26.100Z,66.14
2022-12-31T16:08:55.251Z,66.12
2022-12-31T16:11:30.039Z,66.27
2022-12-31T16:13:59.620Z,66.16
2022-12-31T16:16:31.043Z,66.17
2022-12-31T16:19:00.591Z,66.14
2022-12-31T16:21:38.830Z,66.20
2022-12-31T16:24:30.279Z,66.18
2022-12-31T16:27:05.602Z,66.09
2022-12-31T16:29:42.922Z,66.15
2022-12-31T16:32:15.948Z,66.20
2022-12-31T16:34:44.606Z,66.16
2022-12-31T16:37:19.001Z,66.23
2022-12-31T16:39:57.678Z,66.22
2022-12-31T16:42:27.886Z,66.49
2022-12-31T16:44:58.087Z,66.29
2022-12-31T16:47:36.030Z,66.35
2022-12-31T16:50:14.390Z,66.35
2022-12-31T16:52:48.504Z,66.34
2022-12-31T16:55:24.274Z,66.46
2022-12-31T16:58:01.974Z,66.43
2022-12-31T17:00:32.566Z,66.48
2022-12-31T17:03:15.370Z,66.49
2022-12-31T17:06:06.077Z,66.60
2022-12-31T17:08:43.140Z,66.65
2022-12-31T17:11:50.056Z,66.80
2022-12-31T17:14:22.949Z,66.90
2022-12-31T17:17:02.250Z,66.83
2022-12-31T17:19:47.658Z,67.15
2022-12-31T17:22:36.931Z,67.16
2022-12-31T17:25:24.407Z,67.36
2022-12-31T17:28:01.431Z,67.44
2022-12-31T17:30:33.349Z,67.53
2022-12-31T17:33:03.665Z,67.45
2022-12-31T17:35:33.034Z,67.50
2022-12-31T17:38:22.253Z,67.39
2022-12-31T17:40:54.534Z,67.44
2022-12-31T17:43:23.265Z,67.34
2022-12-31T17:45:52.658Z,67.23
2022-12-31T17:48:24.536Z,67.23
2022-12-31T17:50:58.838Z,67.19
2022-12-31T17:53:26.284Z,66.90
2022-12-31T17:55:56.918Z,66.88
2022-12-31T17:58:29.960Z,66.88
2022-12-31T18:00:59.086Z,66.67
2022-12-31T18:03:26.820Z,66.72
2022-12-31T18:05:54.431Z,66.68
2022-12-31T18:08:22.697Z,66.48
2022-12-31T18:10:51.295Z,66.60
2022-12-31T18:13:22.770Z,66.60
2022-12-31T18:15:54.250Z,66.45
2022-12-31T18:18:33.428Z,66.41
2022-12-31T18:21:05.525Z,66.43
2022-12-31T18:23:41.126Z,66.36
2022-12-31T18:26:17.316Z,66.47
2022-12-31T18:28:45.374Z,66.40
2022-12-31T18:31:19.393Z,66.52
2022-12-31T18:33:47.117Z,66.57
2022-12-31T18:36:16.471Z,66.74
2022-12-31T18:38:43.558Z,66.80
2022-12-31T18:41:18.133Z,66.82
2022-12-31T18:43:45.562Z,66.84
2022-12-31T18:46:15.412Z,66.80
2022-12-31T18:48:43.760Z,66.82
2022-12-31T18:51:20.135Z,66.85
2022-12-31T18:53:47.656Z,66.84
2022-12-31T18:56:17.923Z,66.92
2022-12-31T18:58:45.789Z,66.75
2022-12-31T19:01:26.926Z,66.77
2022-12-31T19:04:02.598Z,66.75
2022-12-31T19:06:30.497Z,66.63
2022-12-31T19:09:00.662Z,66.60
2022-12-31T19:11:28.174Z,66.54
2022-12-31T19:13:55.511Z,66.45
2022-12-31T19:16:22.497Z,66.27
2022-12-31T19:18:50.837Z,66.05
2022-12-31T19:21:21.979Z,66.14
2022-12-31T19:23:50.443Z,66.02
2022-12-31T19:26:20.569Z,66.00
2022-12-31T19:28:49.484Z,65.69
2022-12-31T19:31:17.077Z,65.65
2022-12-31T19:33:44.479Z,65.41
2022-12-31T19:36:17.078Z,65.34
2022-12-31T19:38:45.330Z,65.33
2022-12-31T19:41:18.297Z,65.28
2022-12-31T19:43:47.009Z,65.32
2022-12-31T19:46:16.163Z,65.10
2022-12-31T19:48:44.897Z,65.05
2022-12-31T19:51:17.570Z,65.04
2022-12-31T19:53:45.336Z,64.98
2022-12-31T19:56:15.547Z,64.70
2022-12-31T19:58:43.555Z,64.84
2022-12-31T20:01:29.020Z,64.82
2022-12-31T20:03:56.289Z,64.64
2022-12-31T20:06:23.505Z,64.57
2022-12-31T20:08:50.659Z,64.40
2022-12-31T20:11:22.730Z,64.27
2022-12-31T20:13:54.350Z,64.11
2022-12-31T20:16:26.125Z,64.01
2022-12-31T20:18:53.608Z,63.98
2022-12-31T20:21:24.190Z,63.74
2022-12-31T20:23:53.369Z,63.80
2022-12-31T20:26:22.495Z,63.62
2022-12-31T20:28:50.498Z,63.58
2022-12-31T20:31:20.561Z,63.61
2022-12-31T20:33:47.816Z,63.58
2022-12-31T20:36:16.494Z,63.53
2022-12-31T20:38:44.153Z,63.44
2022-12-31T20:41:19.348Z,63.45
2022-12-31T20:43:47.315Z,63.54
2022-12-31T20:46:19.225Z,63.31
2022-12-31T20:48:48.063Z,63.49
2022-12-31T20:51:16.548Z,63.56
2022-12-31T20:53:52.042Z,63.43
2022-12-31T20:56:21.894Z,63.48
2022-12-31T20:58:48.974Z,63.54
2022-12-31T21:01:17.025Z,63.44
2022-12-31T21:06:34.988Z,63.45
2022-12-31T21:09:04.520Z,63.57
2022-12-31T21:11:50.495Z,63.58
2022-12-31T21:14:17.520Z,63.57
2022-12-31T21:16:44.426Z,63.56
2022-12-31T21:19:11.832Z,63.52
2022-12-31T21:21:38.991Z,63.48
2022-12-31T21:24:06.770Z,63.54
2022-12-31T21:26:34.079Z,63.47
2022-12-31T21:29:01.229Z,63.33
2022-12-31T21:31:28.409Z,63.39
2022-12-31T21:33:55.807Z,63.38
2022-12-31T21:36:23.142Z,63.18
2022-12-31T21:38:50.755Z,63.16
2022-12-31T21:41:36.778Z,63.16
2022-12-31T21:44:03.801Z,62.99
2022-12-31T21:46:31.285Z,62.86
2022-12-31T21:48:59.850Z,62.68
2022-12-31T21:51:28.350Z,62.59
2022-12-31T21:53:56.011Z,62.57
2022-12-31T21:56:23.751Z,62.45
2022-12-31T21:59:14.975Z,62.37
2022-12-31T22:02:01.193Z,62.26
2022-12-31T22:05:00.937Z,62.11
2022-12-31T22:07:16.405Z,62.17
2022-12-31T22:09:43.425Z,61.91
2022-12-31T22:12:10.541Z,61.82
2022-12-31T22:14:37.952Z,61.86
2022-12-31T22:17:05.167Z,61.81
2022-12-31T22:19:39.314Z,61.85
2022-12-31T22:22:19.525Z,61.88
2022-12-31T22:24:46.685Z,61.68
2022-12-31T22:27:28.244Z,61.87
2022-12-31T22:29:57.571Z,61.68
2022-12-31T22:32:25.558Z,61.80
2022-12-31T22:34:53.011Z,61.90
2022-12-31T22:37:54.799Z,61.83
2022-12-31T22:40:08.484Z,61.78
2022-12-31T22:42:35.853Z,61.87
2022-12-31T22:45:04.400Z,61.73
2022-12-31T22:47:31.498Z,61.77
2022-12-31T22:49:58.936Z,61.57
2022-12-31T22:52:25.771Z,61.64
2022-12-31T22:54:52.603Z,61.55
2022-12-31T22:57:20.367Z,61.40
2022-12-31T22:59:47.635Z,61.48
2022-12-31T23:02:15.909Z,61.22
2022-12-31T23:04:42.880Z,61.22
2022-12-31T23:07:09.908Z,61.32
2022-12-31T23:09:55.483Z,61.11
2022-12-31T23:12:22.554Z,61.16
2022-12-31T23:15:08.314Z,60.96
2022-12-31T23:17:54.517Z,61.05
2022-12-31T23:20:42.415Z,60.72
2022-12-31T23:23:14.369Z,60.65
2022-12-31T23:25:47.632Z,60.57
2022-12-31T23:28:18.310Z,60.55
2022-12-31T23:30:46.017Z,60.47
2022-12-31T23:33:16.651Z,60.36
2022-12-31T23:35:44.408Z,60.28
2022-12-31T23:38:12.689Z,60.48
2022-12-31T23:40:39.854Z,60.40
2022-12-31T23:43:20.297Z,60.49
2022-12-31T23:45:49.956Z,60.44
2022-12-31T23:48:17.181Z,60.36
2022-12-31T23:50:49.215Z,60.28
2022-12-31T23:53:19.874Z,60.36
2022-12-31T23:55:46.900Z,60.21
2022-12-31T23:58:14.656Z,60.23
